Time;durP1;ratioP1;P1;durP2;ratioP2;P2;SDS_P1;SDS_P2;PMS_P1;PMS_P2;Temp;Humidity;BMP_temperature;BMP_pressure;BME280_temperature;BME280_humidity;BME280_pressure;Samples;Min_cycle;Max_cycle;Signal;HPM_P1;HPM_P2
2022/08/22 00:02:12;;;;;;;8.23;6.30;;;15.50;99.90;;;;;;5128988;27;20444;-68
2022/08/22 00:04:51;;;;;;;7.97;6.23;;;15.50;99.90;;;;;;5129664;27;20475;-68
2022/08/22 00:07:36;;;;;;;6.63;5.87;;;15.40;99.90;;;;;;5129727;27;20991;-68
2022/08/22 00:10:11;;;;;;;8.60;6.37;;;15.40;99.90;;;;;;5129775;27;20436;-68
2022/08/22 00:12:45;;;;;;;6.70;6.00;;;15.30;99.90;;;;;;5129277;27;20447;-68
2022/08/22 00:15:16;;;;;;;7.07;5.73;;;15.40;99.90;;;;;;5123486;27;20480;-67
2022/08/22 00:17:49;;;;;;;6.80;6.07;;;15.40;99.90;;;;;;5120660;27;20464;-68
2022/08/22 00:20:21;;;;;;;6.83;5.70;;;15.30;99.90;;;;;;5129397;27;20440;-68
2022/08/22 00:22:55;;;;;;;6.17;5.30;;;15.30;99.90;;;;;;5129178;27;20448;-66
2022/08/22 00:25:40;;;;;;;6.57;5.53;;;15.30;99.90;;;;;;5129068;27;20443;-68
2022/08/22 00:28:12;;;;;;;7.10;6.40;;;15.30;99.90;;;;;;5128947;27;20987;-68
2022/08/22 00:30:48;;;;;;;7.73;5.80;;;15.40;99.90;;;;;;5129432;27;20444;-68
2022/08/22 00:33:23;;;;;;;6.80;5.60;;;15.40;99.90;;;;;;5118102;27;20472;-68
2022/08/22 00:36:01;;;;;;;9.60;6.07;;;15.40;99.90;;;;;;5115252;28;20476;-68
2022/08/22 00:38:32;;;;;;;7.80;6.10;;;15.40;99.90;;;;;;5128213;28;20464;-68
2022/08/22 00:41:06;;;;;;;9.10;6.53;;;15.40;99.90;;;;;;5096864;27;20462;-68
2022/08/22 00:44:03;;;;;;;7.50;6.10;;;15.30;99.90;;;;;;5113782;28;20522;-67
2022/08/22 00:47:02;;;;;;;8.60;6.77;;;15.20;99.90;;;;;;5115757;28;20620;-68
2022/08/22 00:49:45;;;;;;;8.17;6.20;;;15.20;99.90;;;;;;5114251;28;20968;-66
2022/08/22 00:52:36;;;;;;;7.17;6.33;;;15.10;99.90;;;;;;5100455;27;20454;-67
2022/08/22 00:55:41;;;;;;;6.67;6.00;;;15.10;99.90;;;;;;5092388;28;20469;-68
2022/08/22 00:58:42;;;;;;;8.20;5.97;;;15.00;99.90;;;;;;5072943;28;20483;-69
2022/08/22 01:01:12;;;;;;;7.87;6.20;;;15.00;99.90;;;;;;5116212;27;20440;-68
2022/08/22 01:04:09;;;;;;;7.07;5.80;;;15.10;99.90;;;;;;5127869;27;20452;-68
2022/08/22 01:06:45;;;;;;;8.20;6.40;;;15.00;99.90;;;;;;5126256;28;20452;-65
2022/08/22 01:09:23;;;;;;;6.70;6.00;;;14.90;99.90;;;;;;5128282;27;20451;-68
2022/08/22 01:12:04;;;;;;;9.33;6.57;;;14.80;99.90;;;;;;5123959;27;20979;-68
2022/08/22 01:14:45;;;;;;;8.60;6.17;;;14.80;99.90;;;;;;5106403;27;20455;-67
2022/08/22 01:17:41;;;;;;;7.70;6.57;;;14.70;99.90;;;;;;5115776;27;20493;-67
2022/08/22 01:20:56;;;;;;;8.00;7.00;;;14.70;99.90;;;;;;5123988;27;20456;-68
2022/08/22 01:23:59;;;;;;;7.73;6.00;;;14.60;99.90;;;;;;5134498;27;20585;-68
2022/08/22 01:27:08;;;;;;;8.73;7.23;;;14.50;99.90;;;;;;5134846;27;20477;-69
2022/08/22 01:30:06;;;;;;;11.40;6.53;;;14.40;99.90;;;;;;5133020;27;20475;-68
2022/08/22 01:33:15;;;;;;;10.80;7.67;;;14.40;99.90;;;;;;5133351;27;20953;-69
2022/08/22 01:36:15;;;;;;;6.47;5.77;;;14.40;99.90;;;;;;5133575;27;20471;-69
2022/08/22 01:39:11;;;;;;;9.63;7.00;;;14.40;99.90;;;;;;5133966;27;20457;-68
2022/08/22 01:42:02;;;;;;;9.40;6.20;;;14.40;99.90;;;;;;5133759;27;20810;-68
2022/08/22 01:45:03;;;;;;;7.60;6.80;;;14.30;99.90;;;;;;5133758;27;20440;-68
2022/08/22 01:47:37;;;;;;;7.93;6.63;;;14.20;99.90;;;;;;5136156;27;20468;-68
2022/08/22 01:50:17;;;;;;;8.47;6.30;;;14.30;99.90;;;;;;5133704;27;20840;-68
2022/08/22 01:52:49;;;;;;;8.83;6.50;;;14.30;99.90;;;;;;5133366;27;20443;-67
2022/08/22 01:55:25;;;;;;;8.33;7.53;;;14.20;99.90;;;;;;5133663;27;20440;-68
2022/08/22 01:57:55;;;;;;;11.90;7.00;;;14.10;99.90;;;;;;5133787;27;20479;-68
2022/08/22 02:00:26;;;;;;;7.93;6.97;;;14.00;99.90;;;;;;5133471;27;20445;-68
2022/08/22 02:03:08;;;;;;;7.03;6.20;;;14.00;99.90;;;;;;5133349;27;20949;-68
2022/08/22 02:05:40;;;;;;;7.90;6.70;;;13.90;99.90;;;;;;5133169;27;20440;-68
2022/08/22 02:08:22;;;;;;;8.80;7.17;;;13.90;99.90;;;;;;5133216;27;20547;-68
2022/08/22 02:10:59;;;;;;;8.40;7.40;;;13.90;99.90;;;;;;5133177;27;20441;-68
2022/08/22 02:13:36;;;;;;;7.93;6.93;;;14.00;99.90;;;;;;5132890;27;20515;-68
2022/08/22 02:16:12;;;;;;;8.13;7.43;;;14.00;99.90;;;;;;5132549;27;21031;-68
2022/08/22 02:18:52;;;;;;;9.60;7.53;;;14.00;99.90;;;;;;5132952;27;20973;-68
2022/08/22 02:21:26;;;;;;;8.00;7.20;;;13.90;99.90;;;;;;5132871;27;20447;-68
2022/08/22 02:23:57;;;;;;;9.90;7.10;;;13.90;99.90;;;;;;5132868;27;20453;-68
2022/08/22 02:26:28;;;;;;;9.00;7.13;;;13.90;99.90;;;;;;5131747;27;21083;-67
2022/08/22 02:28:59;;;;;;;7.00;5.83;;;13.90;99.90;;;;;;5132962;27;20444;-68
2022/08/22 02:31:37;;;;;;;7.80;7.07;;;13.80;99.90;;;;;;5132663;27;20448;-68
2022/08/22 02:34:22;;;;;;;9.67;7.83;;;13.70;99.90;;;;;;5132757;27;20451;-68
2022/08/22 02:36:55;;;;;;;9.30;7.87;;;13.70;99.90;;;;;;5132539;27;20488;-67
2022/08/22 02:39:32;;;;;;;7.53;6.80;;;13.70;99.90;;;;;;5132676;27;20444;-68
2022/08/22 02:42:11;;;;;;;8.30;7.50;;;13.70;99.90;;;;;;5132564;27;20459;-68
2022/08/22 02:44:47;;;;;;;7.13;6.43;;;13.60;99.90;;;;;;5132092;27;20448;-67
2022/08/22 02:47:27;;;;;;;9.23;7.67;;;13.60;99.90;;;;;;5132287;27;20467;-68
2022/08/22 02:50:05;;;;;;;7.80;7.10;;;13.60;99.90;;;;;;5132281;27;20444;-68
2022/08/22 02:52:41;;;;;;;8.73;7.60;;;13.60;99.90;;;;;;5132435;27;20523;-68
2022/08/22 02:55:15;;;;;;;7.73;6.87;;;13.60;99.90;;;;;;5132244;27;20811;-68
2022/08/22 02:57:47;;;;;;;8.90;7.27;;;13.50;99.90;;;;;;5132392;27;20484;-69
2022/08/22 03:00:17;;;;;;;8.70;7.73;;;13.60;99.90;;;;;;5132335;27;20448;-67
2022/08/22 03:03:05;;;;;;;9.77;7.70;;;13.70;99.90;;;;;;5132182;27;20444;-67
2022/08/22 03:05:48;;;;;;;10.67;7.17;;;13.60;99.90;;;;;;5132413;27;20448;-68
2022/08/22 03:08:22;;;;;;;10.00;7.20;;;13.60;99.90;;;;;;5133222;27;20461;-67
2022/08/22 03:11:02;;;;;;;7.97;6.77;;;13.70;99.90;;;;;;5132331;27;20808;-68
2022/08/22 03:13:39;;;;;;;11.70;7.83;;;13.70;99.90;;;;;;5132079;27;20440;-68
2022/08/22 03:16:13;;;;;;;8.60;7.57;;;13.60;99.90;;;;;;5130937;27;20533;-68
2022/08/22 03:18:48;;;;;;;7.77;7.07;;;13.60;99.90;;;;;;5131803;27;20563;-68
2022/08/22 03:21:24;;;;;;;8.40;7.40;;;13.50;99.90;;;;;;5131949;27;20451;-68
2022/08/22 03:23:55;;;;;;;8.43;7.53;;;13.50;99.90;;;;;;5132012;27;21059;-68
2022/08/22 03:26:30;;;;;;;8.30;7.50;;;13.40;99.90;;;;;;5131331;27;20445;-67
2022/08/22 03:29:03;;;;;;;9.60;7.47;;;13.50;99.90;;;;;;5131768;27;20443;-68
2022/08/22 03:31:32;;;;;;;9.30;7.00;;;13.40;99.90;;;;;;5132044;27;20451;-68
2022/08/22 03:34:21;;;;;;;8.00;7.20;;;13.40;99.90;;;;;;5131668;27;20439;-68
2022/08/22 03:37:02;;;;;;;10.17;8.10;;;13.40;99.90;;;;;;5130141;27;20536;-67
2022/08/22 03:39:46;;;;;;;9.60;7.27;;;13.40;99.90;;;;;;5131589;27;20440;-68
2022/08/22 03:42:39;;;;;;;9.87;8.87;;;13.30;99.90;;;;;;5131425;27;20462;-67
2022/08/22 03:45:27;;;;;;;12.53;9.13;;;13.30;99.90;;;;;;5130974;27;20454;-68
2022/08/22 03:48:39;;;;;;;11.13;8.53;;;13.30;99.90;;;;;;5131350;27;20464;-67
2022/08/22 03:51:32;;;;;;;13.43;9.03;;;13.20;99.90;;;;;;5131290;27;20428;-67
2022/08/22 03:54:29;;;;;;;12.10;8.10;;;13.20;99.90;;;;;;5128761;27;21051;-67
2022/08/22 03:57:25;;;;;;;10.83;8.20;;;13.10;99.90;;;;;;5131096;27;20480;-68
2022/08/22 04:00:21;;;;;;;10.13;8.60;;;13.10;99.90;;;;;;5097022;27;20536;-67
2022/08/22 04:03:26;;;;;;;8.93;8.03;;;13.00;99.90;;;;;;5131061;27;20436;-66
2022/08/22 04:06:38;;;;;;;8.93;7.90;;;13.00;99.90;;;;;;5130717;27;20447;-68
2022/08/22 04:09:41;;;;;;;7.73;6.93;;;13.10;99.90;;;;;;5131163;27;20436;-68
2022/08/22 04:12:52;;;;;;;9.53;8.57;;;13.10;99.90;;;;;;5128637;27;20448;-68
2022/08/22 04:15:51;;;;;;;9.03;7.67;;;13.00;99.90;;;;;;5130781;27;20444;-67
2022/08/22 04:18:44;;;;;;;8.13;7.27;;;13.10;99.90;;;;;;5115045;27;20500;-67
2022/08/22 04:21:44;;;;;;;8.77;7.87;;;13.10;99.90;;;;;;5131005;27;20443;-67
2022/08/22 04:24:33;;;;;;;10.20;9.10;;;13.10;99.90;;;;;;5125787;27;20843;-67
2022/08/22 04:27:06;;;;;;;8.60;7.70;;;13.00;99.90;;;;;;5130591;27;20859;-68
2022/08/22 04:29:42;;;;;;;8.43;7.50;;;13.00;99.90;;;;;;5130900;27;20447;-67
2022/08/22 04:32:20;;;;;;;11.40;7.83;;;12.90;99.90;;;;;;5130672;27;20448;-68
2022/08/22 04:34:50;;;;;;;12.80;8.50;;;12.90;99.90;;;;;;5130463;27;20832;-68
2022/08/22 04:37:22;;;;;;;10.00;9.10;;;12.80;99.90;;;;;;5130620;27;20479;-67
2022/08/22 04:39:55;;;;;;;9.33;7.80;;;12.80;99.90;;;;;;5130685;27;20445;-67
2022/08/22 04:42:29;;;;;;;11.40;9.43;;;12.80;99.90;;;;;;5131119;27;20436;-68
2022/08/22 04:45:03;;;;;;;10.03;9.07;;;12.80;99.90;;;;;;5130610;27;20538;-67
2022/08/22 04:47:35;;;;;;;9.60;8.70;;;12.90;99.90;;;;;;5130963;27;20467;-67
2022/08/22 04:50:09;;;;;;;9.43;8.43;;;12.90;99.90;;;;;;5134671;27;20451;-67
2022/08/22 04:52:48;;;;;;;8.53;7.73;;;12.90;99.90;;;;;;5134779;27;20448;-67
2022/08/22 04:55:32;;;;;;;8.90;8.10;;;12.90;99.90;;;;;;5135056;27;20813;-67
2022/08/22 04:58:06;;;;;;;9.57;8.40;;;13.00;99.90;;;;;;5134436;27;20489;-67
2022/08/22 05:00:40;;;;;;;10.07;7.60;;;13.00;99.90;;;;;;5134511;27;20910;-67
2022/08/22 05:03:14;;;;;;;9.80;8.53;;;13.20;99.90;;;;;;5134719;27;20451;-67
2022/08/22 05:05:42;;;;;;;12.07;8.30;;;13.30;99.90;;;;;;5134062;27;20531;-67
2022/08/22 05:08:16;;;;;;;9.07;8.17;;;13.30;99.90;;;;;;5134359;27;20460;-67
2022/08/22 05:10:47;;;;;;;10.20;8.80;;;13.40;99.90;;;;;;5134183;27;20440;-67
2022/08/22 05:13:21;;;;;;;9.67;8.87;;;13.50;99.90;;;;;;5134103;27;21093;-68
2022/08/22 05:15:52;;;;;;;8.90;8.00;;;13.60;99.90;;;;;;5134086;27;20489;-67
2022/08/22 05:18:25;;;;;;;10.60;8.30;;;13.70;99.90;;;;;;5134127;27;20866;-67
2022/08/22 05:20:54;;;;;;;10.53;8.50;;;13.70;99.90;;;;;;5134144;27;20814;-67
2022/08/22 05:23:27;;;;;;;11.87;8.43;;;13.80;99.90;;;;;;5133960;27;20436;-67
2022/08/22 05:25:57;;;;;;;9.23;8.37;;;13.80;99.90;;;;;;5133878;27;20459;-67
2022/08/22 05:28:33;;;;;;;8.70;7.80;;;13.80;99.90;;;;;;5133951;27;20468;-68
2022/08/22 05:31:04;;;;;;;14.47;8.60;;;13.80;99.90;;;;;;5133856;27;20444;-68
2022/08/22 05:33:37;;;;;;;8.80;7.70;;;13.70;99.90;;;;;;5133853;27;20807;-67
2022/08/22 05:36:08;;;;;;;10.10;8.60;;;13.70;99.90;;;;;;5133726;27;20479;-67
2022/08/22 05:38:41;;;;;;;11.07;7.93;;;13.70;99.90;;;;;;5133624;27;20479;-67
2022/08/22 05:41:11;;;;;;;10.47;8.30;;;13.70;99.90;;;;;;5133688;27;20949;-67
2022/08/22 05:43:43;;;;;;;8.47;7.60;;;13.80;99.90;;;;;;5133712;27;20446;-68
2022/08/22 05:46:18;;;;;;;10.10;8.60;;;14.00;99.90;;;;;;5133048;27;20448;-68
2022/08/22 05:48:54;;;;;;;11.33;9.37;;;14.10;99.90;;;;;;5133681;27;20464;-68
2022/08/22 05:51:25;;;;;;;8.77;7.87;;;14.10;99.90;;;;;;5133507;27;20948;-69
2022/08/22 05:54:03;;;;;;;11.43;8.93;;;14.30;99.90;;;;;;5133497;27;20531;-69
2022/08/22 05:56:37;;;;;;;9.27;7.70;;;14.40;99.90;;;;;;5132901;27;20478;-68
2022/08/22 05:59:13;;;;;;;9.97;8.80;;;14.40;99.90;;;;;;5133453;27;20833;-66
2022/08/22 06:01:47;;;;;;;9.80;8.87;;;14.50;99.90;;;;;;5132626;27;20510;-67
2022/08/22 06:04:22;;;;;;;10.70;8.97;;;14.60;99.90;;;;;;5133362;27;20882;-67
2022/08/22 06:06:55;;;;;;;10.63;9.63;;;14.70;99.90;;;;;;5132753;27;20479;-67
2022/08/22 06:09:32;;;;;;;10.03;9.00;;;14.90;99.90;;;;;;5133358;27;20475;-67
2022/08/22 06:12:04;;;;;;;13.50;10.60;;;14.90;99.90;;;;;;5133202;27;20444;-67
2022/08/22 06:14:45;;;;;;;9.80;8.90;;;15.00;99.90;;;;;;5132928;27;20472;-67
2022/08/22 06:17:15;;;;;;;9.23;7.90;;;15.10;99.90;;;;;;5132801;27;20490;-67
2022/08/22 06:19:52;;;;;;;10.73;9.23;;;15.20;99.90;;;;;;5133213;27;20472;-67
2022/08/22 06:22:22;;;;;;;12.00;9.20;;;15.30;99.90;;;;;;5132846;27;20454;-67
2022/08/22 06:24:51;;;;;;;15.33;8.83;;;15.40;99.90;;;;;;5132776;27;20444;-66
2022/08/22 06:27:23;;;;;;;13.37;8.47;;;15.50;99.90;;;;;;5132329;27;20499;-67
2022/08/22 06:29:55;;;;;;;9.63;8.70;;;15.60;99.90;;;;;;5132129;27;20448;-67
2022/08/22 06:32:24;;;;;;;9.23;8.40;;;15.70;99.90;;;;;;5132701;27;20444;-67
2022/08/22 06:34:57;;;;;;;9.90;7.90;;;15.80;99.90;;;;;;5132655;27;20527;-67
2022/08/22 06:37:31;;;;;;;10.63;9.63;;;15.90;99.90;;;;;;5133108;27;20484;-67
2022/08/22 06:40:00;;;;;;;11.27;8.90;;;16.00;99.90;;;;;;5132698;27;20444;-67
2022/08/22 06:42:30;;;;;;;9.90;8.37;;;16.00;99.90;;;;;;5132706;27;20444;-67
2022/08/22 06:45:01;;;;;;;8.70;7.70;;;16.10;99.90;;;;;;5132518;27;20444;-68
2022/08/22 06:47:33;;;;;;;9.50;8.47;;;16.30;99.90;;;;;;5132433;27;20969;-67
2022/08/22 06:50:06;;;;;;;10.50;8.07;;;16.40;99.90;;;;;;5132490;27;20444;-67
2022/08/22 06:52:38;;;;;;;9.03;8.23;;;16.50;99.90;;;;;;5132420;27;20450;-67
2022/08/22 06:55:07;;;;;;;10.57;7.93;;;16.60;99.90;;;;;;5132068;27;20823;-67
2022/08/22 06:57:37;;;;;;;9.80;8.80;;;16.80;99.90;;;;;;5132152;27;20892;-67
2022/08/22 07:00:10;;;;;;;9.67;8.03;;;16.90;99.90;;;;;;5132257;27;20452;-67
2022/08/22 07:02:41;;;;;;;8.40;7.53;;;17.00;99.90;;;;;;5132211;27;20493;-67
2022/08/22 07:05:14;;;;;;;7.97;7.17;;;17.20;99.90;;;;;;5131818;27;20485;-67
2022/08/22 07:07:41;;;;;;;13.80;9.70;;;17.30;99.90;;;;;;5132279;27;20460;-67
2022/08/22 07:10:11;;;;;;;9.63;7.70;;;17.50;99.90;;;;;;5132527;27;20436;-65
2022/08/22 07:12:39;;;;;;;9.80;7.30;;;17.50;99.90;;;;;;5131800;27;20943;-65
2022/08/22 07:15:13;;;;;;;9.33;7.50;;;17.60;99.90;;;;;;5131678;27;20455;-65
2022/08/22 07:17:49;;;;;;;8.20;6.47;;;17.80;99.90;;;;;;5131670;27;20480;-65
2022/08/22 07:20:24;;;;;;;8.00;7.10;;;17.90;99.90;;;;;;5131812;27;20977;-65
2022/08/22 07:22:53;;;;;;;11.67;6.90;;;18.10;99.90;;;;;;5132101;27;20443;-66
2022/08/22 07:25:21;;;;;;;9.10;6.10;;;18.20;99.90;;;;;;5132302;27;20524;-63
2022/08/22 07:28:02;;;;;;;8.43;6.80;;;18.30;99.90;;;;;;5132872;27;20904;-65
2022/08/22 07:30:41;;;;;;;9.73;6.33;;;18.40;99.90;;;;;;5122508;27;20457;-64
2022/08/22 07:33:20;;;;;;;8.07;6.00;;;18.50;99.90;;;;;;5109885;28;20442;-64
2022/08/22 07:35:55;;;;;;;6.53;5.90;;;18.60;99.90;;;;;;5111295;28;20445;-66
2022/08/22 07:38:32;;;;;;;6.83;6.10;;;18.70;99.90;;;;;;5110905;28;20485;-66
2022/08/22 07:41:09;;;;;;;8.00;6.37;;;18.80;99.90;;;;;;5111302;28;20478;-67
2022/08/22 07:43:41;;;;;;;7.17;5.70;;;19.00;99.90;;;;;;5113444;28;20441;-66
2022/08/22 07:46:19;;;;;;;6.80;5.43;;;19.10;99.90;;;;;;5110709;28;20449;-65
2022/08/22 07:48:51;;;;;;;7.70;6.90;;;19.30;99.90;;;;;;5110913;28;21005;-66
2022/08/22 07:51:25;;;;;;;8.43;5.63;;;19.50;99.90;;;;;;5110723;28;20445;-66
2022/08/22 07:53:59;;;;;;;9.40;6.07;;;19.60;99.90;;;;;;5104122;28;20449;-67
2022/08/22 07:56:29;;;;;;;8.13;6.40;;;19.80;99.90;;;;;;5103738;28;20445;-67
2022/08/22 07:58:58;;;;;;;6.50;5.70;;;19.90;99.90;;;;;;5103476;28;20488;-67
2022/08/22 08:01:28;;;;;;;6.30;5.70;;;20.00;99.90;;;;;;5109316;28;20945;-67
2022/08/22 08:03:59;;;;;;;6.53;5.53;;;20.10;99.90;;;;;;5110084;28;20195;-66
2022/08/22 08:06:30;;;;;;;8.13;5.80;;;20.30;99.90;;;;;;5110182;28;20451;-67
2022/08/22 08:08:57;;;;;;;7.50;5.37;;;20.40;99.90;;;;;;5110427;28;20445;-67
2022/08/22 08:11:28;;;;;;;6.20;5.53;;;20.60;99.90;;;;;;5110383;28;20441;-66
2022/08/22 08:14:01;;;;;;;10.23;5.97;;;20.70;99.90;;;;;;5107662;27;20463;-67
2022/08/22 08:16:33;;;;;;;6.17;5.53;;;20.70;99.90;;;;;;5109667;28;20469;-67
2022/08/22 08:19:02;;;;;;;7.70;5.70;;;20.80;99.90;;;;;;5110241;28;20886;-70
2022/08/22 08:21:33;;;;;;;5.83;4.93;;;20.90;99.90;;;;;;5107644;28;20453;-69
2022/08/22 08:24:01;;;;;;;5.73;5.00;;;21.00;99.90;;;;;;5109543;28;20463;-67
2022/08/22 08:26:32;;;;;;;5.20;4.67;;;21.20;99.90;;;;;;5110028;28;21159;-67
2022/08/22 08:28:59;;;;;;;5.50;5.00;;;21.30;99.90;;;;;;5110269;28;20813;-68
2022/08/22 08:31:32;;;;;;;6.40;5.80;;;21.50;99.90;;;;;;5100894;28;20481;-68
2022/08/22 08:34:05;;;;;;;5.40;4.90;;;21.60;99.90;;;;;;5099832;28;20584;-67
2022/08/22 08:36:42;;;;;;;7.90;5.67;;;21.80;99.90;;;;;;5099004;28;20448;-68
2022/08/22 08:39:17;;;;;;;7.07;4.80;;;22.00;99.90;;;;;;5090953;28;21489;-66
2022/08/22 08:42:16;;;;;;;6.20;4.93;;;22.20;99.90;;;;;;5097353;28;21094;-68
2022/08/22 08:45:07;;;;;;;8.50;4.67;;;22.50;99.90;;;;;;5076725;28;20841;-68
2022/08/22 08:47:59;;;;;;;5.10;4.60;;;22.80;99.90;;;;;;5099404;28;20834;-66
2022/08/22 08:50:51;;;;;;;8.53;5.97;;;23.00;99.90;;;;;;5101888;28;20453;-67
2022/08/22 08:53:49;;;;;;;5.70;5.00;;;23.20;99.90;;;;;;5098115;28;20974;-67
2022/08/22 08:56:23;;;;;;;8.20;5.20;;;23.40;99.90;;;;;;5094141;28;20896;-68
2022/08/22 08:58:59;;;;;;;6.17;5.57;;;23.60;99.90;;;;;;5095679;28;20488;-67
2022/08/22 09:01:58;;;;;;;6.00;5.40;;;23.80;99.90;;;;;;5100630;28;21293;-67
2022/08/22 09:05:16;;;;;;;8.13;5.63;;;24.00;99.90;;;;;;5090748;28;20461;-65
2022/08/22 09:08:07;;;;;;;5.77;5.27;;;24.30;99.90;;;;;;5038503;28;21004;-67
2022/08/22 09:11:05;;;;;;;6.33;5.70;;;24.50;99.90;;;;;;5098115;28;20477;-64
2022/08/22 09:13:44;;;;;;;6.63;5.70;;;24.60;99.90;;;;;;5100158;28;20974;-66
2022/08/22 09:16:39;;;;;;;12.27;5.70;;;24.90;99.90;;;;;;5095765;28;20442;-66
2022/08/22 09:19:43;;;;;;;5.50;5.00;;;24.90;99.90;;;;;;5104740;28;20483;-67
2022/08/22 09:22:39;;;;;;;5.87;5.37;;;25.20;99.90;;;;;;5107776;28;20437;-67
2022/08/22 09:25:28;;;;;;;6.60;5.40;;;25.40;99.90;;;;;;5101460;28;20482;-67
2022/08/22 09:28:00;;;;;;;6.17;5.57;;;25.60;99.90;;;;;;5104393;28;20493;-66
2022/08/22 09:30:56;;;;;;;6.40;5.80;;;25.80;99.90;;;;;;5109221;28;20885;-68
2022/08/22 09:33:29;;;;;;;6.60;6.00;;;26.20;99.80;;;;;;5108266;28;20445;-65
2022/08/22 09:36:03;;;;;;;7.60;5.10;;;26.90;98.10;;;;;;5101881;28;20453;-66
2022/08/22 09:38:42;;;;;;;6.57;5.87;;;27.50;97.30;;;;;;5110916;27;20472;-68
2022/08/22 09:41:21;;;;;;;7.90;5.50;;;28.20;94.70;;;;;;5104312;27;20448;-67
2022/08/22 09:44:05;;;;;;;6.63;5.20;;;28.50;93.40;;;;;;5108544;28;20999;-67
2022/08/22 09:46:41;;;;;;;7.10;6.40;;;28.80;94.20;;;;;;5103328;28;20927;-67
2022/08/22 09:49:14;;;;;;;5.40;4.77;;;29.20;92.70;;;;;;5110939;28;20451;-66
2022/08/22 09:51:50;;;;;;;5.73;5.13;;;29.50;92.90;;;;;;5108130;28;20444;-67
2022/08/22 09:54:24;;;;;;;5.17;4.77;;;29.90;91.60;;;;;;5109568;28;20441;-68
2022/08/22 09:56:59;;;;;;;6.40;4.90;;;30.10;90.20;;;;;;5110466;28;20460;-66
2022/08/22 09:59:44;;;;;;;5.97;4.97;;;30.30;90.10;;;;;;5111931;28;20488;-66
2022/08/22 10:02:23;;;;;;;5.90;5.30;;;30.70;87.20;;;;;;5106206;28;20952;-67
2022/08/22 10:04:59;;;;;;;5.70;5.20;;;30.80;85.30;;;;;;5107843;27;20512;-66
2022/08/22 10:07:40;;;;;;;5.50;4.87;;;30.70;86.10;;;;;;5103578;27;20473;-67
2022/08/22 10:10:28;;;;;;;6.10;5.60;;;30.90;84.30;;;;;;5101316;27;21175;-66
2022/08/22 10:13:02;;;;;;;5.00;4.50;;;31.40;81.40;;;;;;5101126;28;20532;-68
2022/08/22 10:15:39;;;;;;;5.63;5.03;;;31.50;82.90;;;;;;5108492;28;20433;-67
2022/08/22 10:18:18;;;;;;;7.13;4.83;;;31.50;81.20;;;;;;5101313;28;21020;-67
2022/08/22 10:20:57;;;;;;;5.73;5.30;;;31.70;80.20;;;;;;5099032;28;20456;-67
2022/08/22 10:23:31;;;;;;;6.37;4.80;;;31.40;81.00;;;;;;5100477;28;20513;-68
2022/08/22 10:26:13;;;;;;;5.10;4.70;;;31.50;80.90;;;;;;5098331;28;20821;-68
2022/08/22 10:28:51;;;;;;;5.13;4.73;;;31.50;77.50;;;;;;5099647;28;20484;-67
2022/08/22 10:31:26;;;;;;;5.20;4.63;;;31.70;77.10;;;;;;5100210;28;20449;-68
2022/08/22 10:34:03;;;;;;;5.20;4.70;;;32.20;77.90;;;;;;5103699;28;20451;-68
2022/08/22 10:36:38;;;;;;;5.30;4.57;;;31.90;76.60;;;;;;5104859;28;21023;-67
2022/08/22 10:39:09;;;;;;;5.30;4.50;;;31.50;75.80;;;;;;5108918;28;21038;-68
2022/08/22 10:41:54;;;;;;;9.87;4.80;;;31.40;76.00;;;;;;5113820;28;20441;-68
2022/08/22 10:44:28;;;;;;;5.03;4.53;;;32.00;75.10;;;;;;5111729;28;20440;-68
2022/08/22 10:47:02;;;;;;;4.87;4.43;;;32.40;73.90;;;;;;5107720;28;20983;-68
2022/08/22 10:49:34;;;;;;;3.90;3.60;;;33.00;71.60;;;;;;5104640;28;20547;-68
2022/08/22 10:52:07;;;;;;;4.50;3.90;;;32.90;67.40;;;;;;5111949;28;20442;-68
2022/08/22 10:54:48;;;;;;;4.97;4.37;;;32.80;67.60;;;;;;5111336;28;20897;-67
2022/08/22 10:57:32;;;;;;;4.50;3.77;;;33.40;65.60;;;;;;5111788;28;20544;-67
2022/08/22 11:00:06;;;;;;;4.40;3.90;;;33.90;60.80;;;;;;5111732;28;20477;-68
2022/08/22 11:02:44;;;;;;;6.27;3.87;;;34.20;61.00;;;;;;5109593;28;20450;-68
2022/08/22 11:05:32;;;;;;;4.53;3.90;;;34.30;60.00;;;;;;5106274;28;20446;-67
2022/08/22 11:08:07;;;;;;;4.87;4.37;;;34.00;59.90;;;;;;5111108;28;20488;-68
2022/08/22 11:10:52;;;;;;;4.70;3.90;;;34.10;59.90;;;;;;5106589;28;20456;-67
2022/08/22 11:13:29;;;;;;;5.20;3.63;;;34.60;58.30;;;;;;5111173;28;20446;-67
2022/08/22 11:16:00;;;;;;;6.43;4.33;;;34.80;56.70;;;;;;5109166;28;20959;-68
2022/08/22 11:18:41;;;;;;;4.33;3.60;;;34.40;56.40;;;;;;5110985;28;20504;-68
2022/08/22 11:21:11;;;;;;;4.70;4.30;;;33.30;56.90;;;;;;5109321;28;20441;-67
2022/08/22 11:23:44;;;;;;;4.10;3.70;;;31.50;59.80;;;;;;5110846;27;20437;-67
2022/08/22 11:26:25;;;;;;;4.37;3.57;;;30.50;62.50;;;;;;5110495;28;20848;-67
2022/08/22 11:29:26;;;;;;;4.27;3.87;;;30.70;63.00;;;;;;5111241;28;20468;-67
2022/08/22 11:32:01;;;;;;;4.40;4.00;;;31.70;61.50;;;;;;5077198;28;20548;-69
2022/08/22 11:34:44;;;;;;;4.17;3.60;;;32.40;60.00;;;;;;5103573;27;20440;-67
2022/08/22 11:37:19;;;;;;;4.30;3.90;;;32.60;59.70;;;;;;5106899;28;20472;-67
2022/08/22 11:40:01;;;;;;;7.43;4.50;;;32.40;59.20;;;;;;5093253;28;20481;-67
2022/08/22 11:42:33;;;;;;;4.67;3.90;;;31.50;60.40;;;;;;5103491;28;20438;-67
2022/08/22 11:45:04;;;;;;;7.30;4.60;;;30.80;63.30;;;;;;5097896;28;20461;-66
2022/08/22 11:47:36;;;;;;;4.13;3.53;;;31.10;62.10;;;;;;5103793;28;20476;-68
2022/08/22 11:50:15;;;;;;;6.67;4.43;;;31.90;60.90;;;;;;5109918;28;20433;-68
2022/08/22 11:52:56;;;;;;;4.47;3.93;;;33.20;59.60;;;;;;5110636;28;20441;-68
2022/08/22 11:55:31;;;;;;;4.70;4.00;;;34.40;57.10;;;;;;5104694;28;20441;-69
2022/08/22 11:58:10;;;;;;;4.83;3.83;;;35.30;55.40;;;;;;5109272;27;20460;-69
2022/08/22 12:00:48;;;;;;;4.67;3.90;;;35.50;51.20;;;;;;5106581;28;20536;-68
2022/08/22 12:03:37;;;;;;;3.87;3.47;;;35.80;52.60;;;;;;5109617;28;20441;-67
2022/08/22 12:06:28;;;;;;;4.10;3.70;;;36.20;51.70;;;;;;5104474;28;20524;-67
2022/08/22 12:09:34;;;;;;;4.80;3.33;;;36.30;50.60;;;;;;5110414;28;20811;-68
2022/08/22 12:12:25;;;;;;;4.30;3.90;;;36.20;49.50;;;;;;5084585;28;20541;-67
2022/08/22 12:14:59;;;;;;;5.03;4.17;;;35.30;52.10;;;;;;5106519;28;20434;-70
2022/08/22 12:18:10;;;;;;;4.70;4.20;;;34.60;53.00;;;;;;5105110;28;20465;-67
2022/08/22 12:21:05;;;;;;;5.50;3.60;;;34.50;51.20;;;;;;5104443;28;20858;-68
2022/08/22 12:23:51;;;;;;;4.07;3.60;;;34.30;53.70;;;;;;5108005;28;20452;-68
2022/08/22 12:26:28;;;;;;;4.77;3.70;;;34.20;54.00;;;;;;5103122;28;20494;-69
2022/08/22 12:29:15;;;;;;;4.93;3.40;;;34.40;52.40;;;;;;5092927;28;20434;-69
2022/08/22 12:32:17;;;;;;;5.07;3.63;;;34.40;52.60;;;;;;5094128;28;20437;-68
2022/08/22 12:34:55;;;;;;;5.03;4.00;;;34.50;52.20;;;;;;5092836;28;20446;-67
2022/08/22 12:37:29;;;;;;;4.03;3.63;;;34.20;52.90;;;;;;5097203;28;20553;-68
2022/08/22 12:40:23;;;;;;;3.57;3.27;;;33.10;52.60;;;;;;5096081;28;20484;-68
2022/08/22 12:43:18;;;;;;;4.70;3.57;;;33.70;53.70;;;;;;5094583;28;20453;-68
2022/08/22 12:46:05;;;;;;;3.40;3.10;;;35.20;51.50;;;;;;5095670;28;20453;-68
2022/08/22 12:48:54;;;;;;;4.70;3.73;;;36.40;49.00;;;;;;5096868;28;20482;-69
2022/08/22 12:51:30;;;;;;;4.60;3.03;;;37.40;49.60;;;;;;5096816;28;20447;-68
2022/08/22 12:54:34;;;;;;;5.20;3.10;;;37.90;46.90;;;;;;5095783;28;20453;-68
2022/08/22 12:57:14;;;;;;;3.93;2.83;;;38.80;46.20;;;;;;5028736;28;20465;-68
2022/08/22 12:59:46;;;;;;;4.63;3.30;;;39.80;43.20;;;;;;5093157;28;20489;-69
2022/08/22 13:02:16;;;;;;;4.70;2.90;;;39.30;40.90;;;;;;5097759;28;20815;-68
2022/08/22 13:04:50;;;;;;;66.13;16.27;;;37.70;43.20;;;;;;5095011;28;20438;-68
2022/08/22 13:07:23;;;;;;;3.90;3.00;;;36.30;46.00;;;;;;5089276;28;20459;-68
2022/08/22 13:09:52;;;;;;;2.97;2.00;;;36.30;45.60;;;;;;5105477;28;21889;-67
2022/08/22 13:12:27;;;;;;;2.63;2.20;;;36.40;47.40;;;;;;5107526;28;20523;-67
2022/08/22 13:14:58;;;;;;;56.80;9.33;;;34.50;46.60;;;;;;5107484;28;20441;-67
2022/08/22 13:17:26;;;;;;;4.10;3.70;;;32.60;50.70;;;;;;5101077;28;20469;-67
2022/08/22 13:19:56;;;;;;;4.60;3.60;;;32.40;52.20;;;;;;5107410;28;20481;-68
2022/08/22 13:22:27;;;;;;;3.90;3.60;;;33.60;50.60;;;;;;5106220;28;20456;-67
2022/08/22 13:24:58;;;;;;;4.27;3.87;;;33.60;50.50;;;;;;5099480;28;20450;-67
2022/08/22 13:27:32;;;;;;;3.50;3.20;;;34.50;49.00;;;;;;5097326;28;20535;-67
2022/08/22 13:30:01;;;;;;;4.93;3.90;;;34.50;51.10;;;;;;5100666;28;20449;-67
2022/08/22 13:32:35;;;;;;;4.13;3.50;;;33.50;50.50;;;;;;5100421;28;20445;-68
2022/08/22 13:35:03;;;;;;;6.40;4.00;;;32.40;53.80;;;;;;5101892;28;20461;-67
2022/08/22 13:37:35;;;;;;;3.93;3.40;;;31.60;55.00;;;;;;5098465;28;20468;-67
2022/08/22 13:40:06;;;;;;;367.60;350.63;;;31.70;56.40;;;;;;5109228;27;20469;-67
2022/08/22 13:42:43;;;;;;;2.30;1.50;;;33.20;53.50;;;;;;5109183;28;21126;-67
2022/08/22 13:45:15;;;;;;;3.03;2.33;;;34.80;53.10;;;;;;5107627;28;20445;-68
2022/08/22 13:47:51;;;;;;;92.70;38.70;;;36.80;50.20;;;;;;5102506;28;20469;-68